Time;durP1;ratioP1;P1;durP2;ratioP2;P2;SDS_P1;SDS_P2;PMS_P1;PMS_P2;Temp;Humidity;BMP_temperature;BMP_pressure;BME280_temperature;BME280_humidity;BME280_pressure;Samples;Min_cycle;Max_cycle;Signal;HPM_P1;HPM_P2
2022/04/09 00:26:30;;;;;;;24.52;3.95;;;15.50;99.90;;;;;;5066268;28;20067;-96
2022/04/09 00:29:14;;;;;;;19.65;4.18;;;15.40;99.90;;;;;;5063891;28;20064;-96
2022/04/09 00:32:32;;;;;;;18.42;4.70;;;15.40;99.90;;;;;;5076078;28;20085;-96
2022/04/09 00:39:14;;;;;;;24.55;4.47;;;15.40;99.90;;;;;;5036190;28;20030;-96
2022/04/09 00:59:14;;;;;;;18.88;3.85;;;15.30;99.90;;;;;;4878711;29;20562;-95
2022/04/09 02:29:13;;;;;;;18.02;4.07;;;15.40;99.90;;;;;;5040458;28;20121;-89
2022/04/09 02:32:30;;;;;;;16.88;3.65;;;15.40;99.90;;;;;;5040450;28;20044;-90
2022/04/09 02:35:46;;;;;;;19.65;3.60;;;15.40;99.90;;;;;;5051835;28;20025;-88
2022/04/09 02:38:58;;;;;;;18.92;3.90;;;15.30;99.90;;;;;;4992039;28;20038;-88
2022/04/09 02:55:51;;;;;;;13.35;3.53;;;15.30;99.90;;;;;;4918867;29;20083;-88
2022/04/09 03:26:21;;;;;;;18.23;3.75;;;15.20;99.90;;;;;;4856153;29;20044;-88
2022/04/09 03:32:54;;;;;;;22.58;4.38;;;15.10;99.90;;;;;;4852592;29;20049;-88
2022/04/09 03:46:30;;;;;;;22.10;4.50;;;14.90;99.90;;;;;;4912487;29;20182;-88
2022/04/09 03:49:02;;;;;;;19.00;4.13;;;14.90;99.90;;;;;;4917342;29;20523;-89
2022/04/09 03:52:00;;;;;;;;;;;14.90;99.90;;;;;;4944925;28;20035;-88
2022/04/09 03:55:13;;;;;;;14.98;4.25;;;14.90;99.90;;;;;;4950905;28;19910;-87
2022/04/09 04:04:48;;;;;;;19.67;4.78;;;14.90;99.90;;;;;;4806286;29;20152;-89
2022/04/09 04:14:03;;;;;;;27.60;4.10;;;14.90;99.90;;;;;;4824760;29;20037;-90
2022/04/09 04:16:54;;;;;;;20.52;4.28;;;14.90;99.90;;;;;;4873658;29;20064;-90
2022/04/09 04:20:53;;;;;;;17.42;3.42;;;14.90;99.90;;;;;;4998083;28;20041;-89
2022/04/09 04:24:41;;;;;;;;;;;;;;;;;;;;;
2022/04/09 04:33:01;;;;;;;22.13;4.00;;;15.00;99.90;;;;;;4976613;28;20058;-89
2022/04/09 04:36:17;;;;;;;21.33;4.00;;;15.00;99.90;;;;;;4977361;28;20050;-90
2022/04/09 04:39:30;;;;;;;22.58;4.63;;;15.00;99.90;;;;;;4966422;28;20030;-89
2022/04/09 04:42:42;;;;;;;16.15;3.83;;;14.90;99.90;;;;;;5047615;28;20045;-89
2022/04/09 04:45:14;;;;;;;23.30;4.50;;;15.00;99.90;;;;;;5039948;28;20040;-93
2022/04/09 04:54:03;;;;;;;17.95;3.70;;;15.00;99.90;;;;;;5053045;28;20188;-90
2022/04/09 04:56:34;;;;;;;21.80;4.20;;;15.10;99.90;;;;;;5047934;28;20116;-90
2022/04/09 04:59:20;;;;;;;17.63;4.07;;;15.10;99.90;;;;;;5046555;28;20036;-89
2022/04/09 05:02:28;;;;;;;24.40;4.80;;;15.10;99.90;;;;;;5062555;28;20022;-88
2022/04/09 05:08:15;;;;;;;14.23;3.83;;;15.00;99.90;;;;;;5037429;28;20050;-91
2022/04/09 05:11:32;;;;;;;14.95;3.58;;;15.10;99.90;;;;;;5025561;28;20028;-90
2022/04/09 05:14:03;;;;;;;15.32;3.15;;;15.10;99.90;;;;;;4974076;28;20030;-92
2022/04/09 05:16:48;;;;;;;;;;;;;;;;;;;;;
2022/04/09 05:19:38;;;;;;;15.00;3.95;;;15.10;99.90;;;;;;5023289;28;20029;-89
2022/04/09 05:22:43;;;;;;;;;;;;;;;;;;;;;
2022/04/09 05:25:16;;;;;;;17.48;3.47;;;15.20;99.90;;;;;;5057055;28;20029;-89
2022/04/09 05:28:18;;;;;;;14.80;3.65;;;15.20;99.90;;;;;;5050148;28;20551;-91
2022/04/09 05:31:37;;;;;;;15.98;4.10;;;15.20;99.90;;;;;;4988080;28;20092;-90
2022/04/09 05:34:19;;;;;;;16.23;4.07;;;15.20;99.90;;;;;;4928654;29;20040;-89
2022/04/09 05:36:45;;;;;;;14.30;3.65;;;15.30;99.90;;;;;;4965802;28;20035;-89
2022/04/09 05:39:17;;;;;;;14.55;3.45;;;15.30;99.90;;;;;;4986449;28;20162;-88
2022/04/09 05:41:52;;;;;;;20.95;3.83;;;15.30;99.90;;;;;;5003867;28;20037;-89
2022/04/09 05:44:19;;;;;;;15.18;4.25;;;15.30;99.90;;;;;;5034882;28;20071;-89
2022/04/09 05:49:52;;;;;;;;;;;;;;;;;;;;;
2022/04/09 05:52:49;;;;;;;16.70;3.55;;;15.40;99.90;;;;;;5044011;28;20552;-89
2022/04/09 05:55:16;;;;;;;14.10;3.28;;;15.40;99.90;;;;;;5050814;28;20108;-88
2022/04/09 05:57:45;;;;;;;12.07;3.50;;;15.40;99.90;;;;;;5029240;28;20460;-88
2022/04/09 06:00:15;;;;;;;23.13;4.07;;;15.40;99.90;;;;;;5036214;28;20043;-88
2022/04/09 06:03:03;;;;;;;14.77;3.85;;;15.40;99.90;;;;;;5054992;28;20032;-90
2022/04/09 06:05:36;;;;;;;16.00;3.97;;;15.40;99.90;;;;;;5028723;28;20112;-90
2022/04/09 06:08:17;;;;;;;17.02;3.95;;;15.40;99.90;;;;;;5034920;28;20038;-88
2022/04/09 06:10:59;;;;;;;;;;;;;;;;;;;;;
2022/04/09 06:16:35;;;;;;;16.63;4.68;;;15.40;99.90;;;;;;5034827;28;20048;-87
2022/04/09 06:19:27;;;;;;;13.35;3.25;;;15.40;99.90;;;;;;5041119;28;20036;-92
2022/04/09 06:22:11;;;;;;;13.80;3.60;;;15.40;99.90;;;;;;5044133;28;20056;-91
2022/04/09 06:25:22;;;;;;;16.85;3.50;;;15.40;99.90;;;;;;5021916;28;20072;-87
2022/04/09 06:28:01;;;;;;;21.13;3.45;;;15.50;99.90;;;;;;5038014;28;20452;-92
2022/04/09 06:30:41;;;;;;;26.33;4.10;;;15.60;99.90;;;;;;5045768;28;20484;-88
2022/04/09 06:33:24;;;;;;;20.98;4.20;;;15.70;99.90;;;;;;5047041;28;20056;-85
2022/04/09 06:36:04;;;;;;;16.55;3.78;;;15.80;99.90;;;;;;5021506;28;20025;-89
2022/04/09 06:38:34;;;;;;;18.02;3.72;;;15.90;99.90;;;;;;5046444;28;20035;-91
2022/04/09 06:41:25;;;;;;;17.35;4.00;;;16.00;99.90;;;;;;5028025;28;20428;-94
2022/04/09 06:43:52;;;;;;;17.55;3.45;;;16.00;99.90;;;;;;5023635;28;20025;-90
2022/04/09 06:46:36;;;;;;;12.27;3.38;;;16.00;99.90;;;;;;5045480;28;20029;-88
2022/04/09 06:49:12;;;;;;;13.48;3.30;;;16.10;99.90;;;;;;5052524;28;20037;-94
2022/04/09 06:51:38;;;;;;;18.90;3.85;;;16.20;99.90;;;;;;5027520;28;20028;-86
2022/04/09 06:54:04;;;;;;;26.35;4.75;;;16.20;99.90;;;;;;5025926;28;20017;-90
2022/04/09 06:56:33;;;;;;;15.07;3.20;;;16.30;99.90;;;;;;5033794;28;20017;-91
2022/04/09 06:59:02;;;;;;;12.05;3.75;;;16.40;99.90;;;;;;5050536;28;20029;-86
2022/04/09 07:01:42;;;;;;;10.60;3.50;;;16.40;99.90;;;;;;5050034;28;20013;-88
2022/04/09 07:04:10;;;;;;;23.58;3.92;;;16.50;99.90;;;;;;5049343;28;20036;-84
2022/04/09 07:07:04;;;;;;;;;;;;;;;;;;;;;
2022/04/09 07:09:50;;;;;;;13.52;3.53;;;16.50;99.90;;;;;;5049689;28;20028;-87
2022/04/09 07:12:22;;;;;;;20.92;6.45;;;16.60;99.90;;;;;;5043096;28;20037;-81
2022/04/09 07:14:51;;;;;;;17.00;3.70;;;16.60;99.90;;;;;;5020609;28;20075;-82
2022/04/09 07:20:36;;;;;;;13.18;3.22;;;16.50;99.90;;;;;;5026600;28;20492;-83
2022/04/09 07:23:05;;;;;;;14.45;3.50;;;16.50;99.90;;;;;;5046693;28;20040;-83
2022/04/09 07:25:42;;;;;;;21.42;3.80;;;16.50;99.90;;;;;;5031840;28;20033;-82
2022/04/09 07:28:15;;;;;;;13.13;3.05;;;16.50;99.90;;;;;;5043041;28;20021;-82
2022/04/09 07:30:43;;;;;;;13.35;3.78;;;16.50;99.90;;;;;;5030602;28;20428;-84
2022/04/09 07:33:10;;;;;;;11.23;3.30;;;16.40;99.90;;;;;;5042764;28;20025;-92
2022/04/09 07:35:50;;;;;;;13.85;3.22;;;16.40;99.90;;;;;;5044815;28;20037;-93
2022/04/09 07:38:36;;;;;;;18.40;3.60;;;16.40;99.90;;;;;;5043721;28;20030;-85
2022/04/09 07:41:12;;;;;;;12.43;3.45;;;16.40;99.90;;;;;;5022683;28;20515;-84
2022/04/09 07:43:41;;;;;;;12.38;3.08;;;16.40;99.90;;;;;;5039221;28;20025;-84
2022/04/09 07:46:12;;;;;;;19.85;3.60;;;16.50;99.90;;;;;;5024670;28;20060;-86
2022/04/09 07:48:38;;;;;;;14.05;4.07;;;16.50;99.90;;;;;;5026806;28;20039;-86
2022/04/09 07:51:07;;;;;;;13.18;3.65;;;16.70;99.90;;;;;;5047642;28;20467;-85
2022/04/09 07:56:25;;;;;;;11.33;2.70;;;16.90;99.90;;;;;;5038464;28;20037;-83
2022/04/09 07:58:51;;;;;;;14.85;3.80;;;16.90;99.90;;;;;;5039125;28;20040;-83
2022/04/09 08:01:17;;;;;;;15.75;3.50;;;16.90;99.90;;;;;;5040206;28;20116;-83
2022/04/09 08:03:49;;;;;;;18.65;3.47;;;16.90;99.90;;;;;;5040167;28;20030;-86
2022/04/09 08:06:20;;;;;;;18.70;3.65;;;17.10;99.90;;;;;;5042471;28;20053;-83
2022/04/09 08:08:49;;;;;;;10.73;2.95;;;17.10;99.90;;;;;;5045305;28;20029;-84
2022/04/09 08:11:15;;;;;;;13.65;3.25;;;17.10;99.90;;;;;;5039061;28;21058;-84
2022/04/09 08:13:41;;;;;;;11.20;3.38;;;17.10;99.90;;;;;;5044567;28;20031;-83
2022/04/09 08:16:09;;;;;;;16.25;3.17;;;17.10;99.90;;;;;;5053279;28;20519;-85
2022/04/09 08:18:39;;;;;;;11.70;2.97;;;17.00;99.90;;;;;;5041021;28;20035;-85
2022/04/09 08:21:16;;;;;;;12.35;2.92;;;17.10;99.90;;;;;;5077179;28;20067;-86
2022/04/09 08:23:41;;;;;;;11.18;2.85;;;17.10;99.90;;;;;;5061714;28;20028;-85
2022/04/09 08:26:10;;;;;;;17.05;3.28;;;17.30;99.90;;;;;;5060832;28;20041;-86
2022/04/09 08:28:36;;;;;;;13.93;3.42;;;17.40;99.90;;;;;;5055608;28;20123;-84
2022/04/09 08:31:13;;;;;;;16.85;3.30;;;17.40;99.90;;;;;;5065606;28;20029;-84
2022/04/09 08:33:42;;;;;;;12.75;3.08;;;17.50;99.90;;;;;;5059668;28;20024;-84
2022/04/09 08:36:08;;;;;;;15.88;3.88;;;17.50;99.90;;;;;;5052949;28;20035;-85
2022/04/09 08:38:34;;;;;;;11.00;2.95;;;17.60;99.90;;;;;;5061375;28;20514;-87
2022/04/09 08:41:03;;;;;;;14.60;3.35;;;17.70;99.90;;;;;;5062719;28;20484;-88
2022/04/09 08:43:33;;;;;;;15.27;3.80;;;17.80;99.90;;;;;;5056422;28;20475;-86
2022/04/09 08:46:02;;;;;;;14.32;3.67;;;17.90;99.90;;;;;;5059407;28;20051;-85
2022/04/09 08:48:28;;;;;;;17.00;3.83;;;18.00;99.90;;;;;;5061959;28;20025;-85
2022/04/09 08:50:54;;;;;;;19.42;4.47;;;18.00;99.90;;;;;;5047396;28;20025;-84
2022/04/09 08:53:21;;;;;;;14.02;3.55;;;18.20;99.90;;;;;;5068815;28;20028;-84
2022/04/09 08:55:50;;;;;;;18.25;3.33;;;18.30;99.90;;;;;;5079514;28;20032;-93
2022/04/09 08:58:16;;;;;;;19.00;3.72;;;18.40;99.90;;;;;;5049389;28;20100;-92
2022/04/09 09:00:45;;;;;;;15.77;3.92;;;18.60;99.90;;;;;;5077094;28;20093;-93
2022/04/09 09:03:17;;;;;;;17.33;3.70;;;18.70;99.90;;;;;;5059720;28;20096;-93
2022/04/09 09:05:52;;;;;;;17.08;3.50;;;19.00;99.90;;;;;;5079256;28;20041;-92
2022/04/09 09:08:54;;;;;;;26.17;3.85;;;19.30;99.90;;;;;;5052141;28;20399;-90
2022/04/09 09:11:20;;;;;;;16.50;3.60;;;19.70;99.90;;;;;;5063152;28;20093;-92
2022/04/09 09:13:48;;;;;;;16.45;3.78;;;20.00;99.90;;;;;;5084069;28;20279;-90
2022/04/09 09:16:25;;;;;;;11.95;3.58;;;20.10;99.90;;;;;;5063826;28;20036;-92
2022/04/09 09:19:09;;;;;;;13.45;3.33;;;20.20;99.90;;;;;;5068995;28;20036;-91
2022/04/09 09:21:59;;;;;;;15.50;4.57;;;20.30;99.90;;;;;;5082286;28;20018;-90
2022/04/09 09:24:28;;;;;;;14.30;3.63;;;20.40;99.90;;;;;;5050515;28;20030;-92
2022/04/09 09:26:59;;;;;;;15.95;3.40;;;20.30;99.90;;;;;;5046406;28;20093;-92
2022/04/09 09:29:28;;;;;;;14.27;3.42;;;20.30;99.90;;;;;;5070332;28;20032;-89
2022/04/09 09:32:05;;;;;;;15.75;4.00;;;20.30;99.90;;;;;;5049959;28;20045;-91
2022/04/09 09:34:55;;;;;;;14.55;3.45;;;20.00;99.90;;;;;;5064142;28;20112;-92
2022/04/09 09:37:31;;;;;;;13.73;3.78;;;19.80;99.90;;;;;;5087024;28;20075;-91
2022/04/09 09:40:04;;;;;;;18.02;3.67;;;19.90;99.90;;;;;;5056364;28;20028;-92
2022/04/09 09:42:33;;;;;;;;;;;19.90;99.90;;;;;;5091297;28;20021;-91
2022/04/09 09:44:59;;;;;;;12.25;2.70;;;19.70;99.90;;;;;;5071420;28;19920;-92
2022/04/09 09:47:25;;;;;;;11.85;3.42;;;19.50;99.90;;;;;;5062023;28;20021;-93
2022/04/09 09:50:01;;;;;;;17.63;3.50;;;19.30;99.90;;;;;;5054981;28;20027;-93
2022/04/09 09:52:42;;;;;;;14.32;3.13;;;19.00;99.90;;;;;;5076708;28;20029;-92
2022/04/09 09:55:24;;;;;;;18.52;3.65;;;19.20;99.90;;;;;;5036789;28;20029;-93
2022/04/09 09:58:05;;;;;;;12.02;3.17;;;19.50;99.90;;;;;;5058919;28;20041;-91
2022/04/09 10:00:31;;;;;;;13.23;3.58;;;19.40;99.90;;;;;;5053398;28;20028;-91
2022/04/09 10:03:06;;;;;;;12.45;3.03;;;19.50;99.90;;;;;;5070661;28;20028;-92
2022/04/09 10:05:33;;;;;;;10.88;3.30;;;19.70;99.90;;;;;;5078073;28;20024;-91
2022/04/09 10:07:59;;;;;;;15.35;3.53;;;20.00;99.90;;;;;;5057656;28;20029;-93
2022/04/09 10:10:29;;;;;;;17.58;3.85;;;20.00;99.90;;;;;;5063100;28;20468;-93
2022/04/09 10:13:08;;;;;;;21.33;3.78;;;20.20;99.90;;;;;;5058551;28;20021;-93
2022/04/09 10:15:50;;;;;;;15.52;3.70;;;20.30;99.90;;;;;;5075238;28;20041;-93
2022/04/09 10:18:23;;;;;;;11.52;3.25;;;20.20;99.90;;;;;;5065776;28;20059;-93
2022/04/09 10:20:58;;;;;;;14.23;3.92;;;20.10;99.90;;;;;;5053147;28;20081;-93
2022/04/09 10:23:27;;;;;;;14.50;3.30;;;20.10;99.90;;;;;;5047815;28;20052;-91
2022/04/09 10:25:55;;;;;;;13.50;3.00;;;19.80;99.90;;;;;;5054346;28;20052;-93
2022/04/09 10:29:03;;;;;;;19.00;3.83;;;19.50;99.90;;;;;;5086834;28;20017;-95
2022/04/09 10:31:36;;;;;;;13.57;3.88;;;19.40;99.90;;;;;;5023041;28;20044;-94
2022/04/09 10:34:29;;;;;;;14.60;4.00;;;19.50;99.90;;;;;;5067496;28;20039;-94
2022/04/09 10:37:04;;;;;;;16.30;3.35;;;19.40;99.90;;;;;;5068530;28;20029;-93
2022/04/09 10:40:14;;;;;;;15.73;3.65;;;19.30;99.90;;;;;;5054765;28;20029;-92
2022/04/09 10:42:48;;;;;;;18.13;3.78;;;19.40;99.90;;;;;;5097466;28;20016;-93
2022/04/09 10:45:14;;;;;;;14.30;3.45;;;19.60;99.90;;;;;;5039157;28;20043;-90
2022/04/09 10:48:11;;;;;;;19.02;3.90;;;19.80;99.90;;;;;;5087022;22;20053;-91
2022/04/09 10:51:19;;;;;;;17.52;3.80;;;19.70;99.90;;;;;;5012285;28;20053;-91
2022/04/09 10:54:22;;;;;;;17.83;4.43;;;19.70;99.90;;;;;;5027048;28;20029;-90
2022/04/09 10:56:51;;;;;;;15.75;3.30;;;19.90;99.90;;;;;;5003124;28;20432;-93
2022/04/09 10:59:42;;;;;;;14.75;3.55;;;20.00;99.90;;;;;;5015403;28;20040;-92
2022/04/09 11:02:16;;;;;;;18.77;4.03;;;19.80;99.90;;;;;;5047553;28;20061;-93
2022/04/09 11:04:44;;;;;;;15.02;3.67;;;20.10;99.90;;;;;;5037874;28;20484;-94
2022/04/09 11:07:16;;;;;;;25.50;4.40;;;20.30;99.90;;;;;;5038505;28;20035;-92
2022/04/09 11:09:59;;;;;;;15.02;3.85;;;20.70;99.90;;;;;;5046799;28;20375;-88
2022/04/09 11:12:46;;;;;;;24.85;3.78;;;21.30;99.90;;;;;;5016250;28;20374;-89
2022/04/09 11:15:15;;;;;;;14.80;3.85;;;21.20;99.90;;;;;;5029918;28;20041;-87
2022/04/09 11:17:48;;;;;;;18.10;3.80;;;20.90;99.90;;;;;;5039306;28;20068;-87
2022/04/09 11:20:28;;;;;;;15.15;3.53;;;21.10;99.90;;;;;;5029571;28;20400;-88
2022/04/09 11:22:58;;;;;;;17.15;3.55;;;21.40;99.90;;;;;;5001568;28;20025;-87
2022/04/09 11:25:31;;;;;;;10.55;3.85;;;21.70;99.90;;;;;;5019236;28;20135;-88
2022/04/09 11:28:19;;;;;;;12.57;3.65;;;22.30;99.90;;;;;;5041069;28;20029;-87
2022/04/09 11:30:55;;;;;;;11.60;3.67;;;22.50;99.90;;;;;;5037952;28;20029;-88
2022/04/09 11:33:24;;;;;;;12.75;3.60;;;22.20;99.90;;;;;;5025595;28;20026;-87
2022/04/09 11:35:56;;;;;;;12.68;3.33;;;21.50;99.90;;;;;;5018651;28;20027;-88
2022/04/09 11:38:29;;;;;;;14.20;3.25;;;21.70;99.90;;;;;;5028703;28;20073;-87
2022/04/09 11:40:58;;;;;;;;;;;21.70;99.90;;;;;;5045715;28;20032;-87
2022/04/09 11:43:30;;;;;;;15.00;3.60;;;21.60;99.90;;;;;;5023775;28;20041;-87
2022/04/09 11:46:03;;;;;;;23.58;3.72;;;21.40;99.90;;;;;;5044602;28;20033;-89
2022/04/09 11:48:29;;;;;;;23.70;4.35;;;21.30;99.90;;;;;;5027724;28;20118;-87
2022/04/09 11:50:55;;;;;;;17.35;3.90;;;21.50;99.90;;;;;;5031071;28;20503;-85
2022/04/09 11:53:24;;;;;;;12.32;3.28;;;21.60;99.90;;;;;;5029653;28;20063;-87
2022/04/09 11:56:05;;;;;;;14.65;3.92;;;22.00;99.90;;;;;;5025742;28;20075;-87
2022/04/09 11:58:35;;;;;;;17.58;3.72;;;22.10;99.90;;;;;;5044943;28;20427;-88
2022/04/09 12:01:05;;;;;;;23.23;3.92;;;21.90;99.90;;;;;;5025118;28;20029;-88
2022/04/09 12:03:32;;;;;;;15.35;3.17;;;22.20;99.90;;;;;;5035677;28;20392;-86
2022/04/09 12:06:01;;;;;;;14.60;3.70;;;22.50;99.90;;;;;;5048559;28;20480;-87
2022/04/09 12:08:28;;;;;;;16.90;3.85;;;22.70;99.90;;;;;;5016689;28;20029;-87
2022/04/09 12:10:57;;;;;;;10.43;3.47;;;23.50;99.90;;;;;;5023205;28;20052;-88
2022/04/09 12:13:26;;;;;;;11.48;3.47;;;23.40;99.90;;;;;;5023055;28;20013;-87
2022/04/09 12:15:52;;;;;;;14.60;4.00;;;23.60;99.90;;;;;;5024247;28;20446;-86
2022/04/09 12:18:37;;;;;;;19.75;3.58;;;24.70;98.30;;;;;;5039034;28;20053;-87
2022/04/09 12:21:26;;;;;;;14.73;4.10;;;23.40;99.30;;;;;;5008204;28;20026;-86
2022/04/09 12:24:21;;;;;;;16.27;3.78;;;23.00;99.80;;;;;;5042062;28;20125;-86
2022/04/09 12:27:12;;;;;;;20.55;1.67;;;24.40;98.50;;;;;;5021974;28;20051;-85
2022/04/09 12:29:51;;;;;;;6.80;1.10;;;23.70;91.00;;;;;;5018541;28;20029;-86
2022/04/09 12:32:26;;;;;;;3.47;0.95;;;21.10;92.00;;;;;;5023187;28;20060;-86
2022/04/09 12:34:55;;;;;;;3.65;1.20;;;19.40;93.60;;;;;;5019654;28;20046;-86
2022/04/09 12:37:24;;;;;;;16.58;1.40;;;18.00;95.20;;;;;;5035479;28;20156;-85
2022/04/09 12:40:11;;;;;;;3.97;0.75;;;16.90;97.00;;;;;;5008607;28;20022;-86
2022/04/09 12:42:48;;;;;;;6.95;1.08;;;16.10;98.30;;;;;;5037301;28;20029;-86
2022/04/09 12:45:28;;;;;;;2.30;0.52;;;15.70;98.60;;;;;;5019167;28;20071;-86
2022/04/09 12:48:11;;;;;;;2.45;0.95;;;15.60;99.10;;;;;;5019945;28;20033;-86
2022/04/09 12:50:37;;;;;;;10.75;0.73;;;15.40;99.20;;;;;;5015983;28;20033;-86
2022/04/09 12:53:05;;;;;;;5.13;0.70;;;15.20;98.80;;;;;;5037852;28;20380;-85
2022/04/09 12:55:33;;;;;;;4.55;0.63;;;14.50;99.30;;;;;;5040288;28;20081;-84
2022/04/09 12:58:01;;;;;;;7.53;0.82;;;14.20;99.80;;;;;;5030631;28;20550;-84
2022/04/09 13:00:32;;;;;;;12.55;0.90;;;13.60;99.90;;;;;;5038786;28;20028;-84
2022/04/09 13:02:59;;;;;;;6.55;0.73;;;13.20;99.90;;;;;;5028107;28;20033;-84
2022/04/09 13:05:29;;;;;;;6.07;1.55;;;12.60;99.90;;;;;;5036755;28;20145;-85
2022/04/09 13:07:55;;;;;;;5.70;0.80;;;12.50;99.90;;;;;;5029741;28;20053;-86
2022/04/09 13:10:20;;;;;;;3.53;0.40;;;12.40;99.90;;;;;;5020281;28;20395;-86
2022/04/09 13:12:46;;;;;;;1.33;0.50;;;12.30;99.90;;;;;;5026546;28;20021;-84
2022/04/09 13:15:12;;;;;;;7.72;0.90;;;12.20;99.90;;;;;;5020941;28;20025;-88
2022/04/09 13:17:38;;;;;;;1.25;0.50;;;12.30;99.90;;;;;;5042549;28;20025;-89
2022/04/09 13:20:09;;;;;;;1.17;0.55;;;12.10;99.90;;;;;;5041157;28;20029;-88
2022/04/09 13:22:38;;;;;;;6.03;0.75;;;12.50;99.90;;;;;;5024265;28;20026;-88
2022/04/09 13:25:26;;;;;;;2.83;0.32;;;12.40;99.90;;;;;;5028087;28;20029;-89
2022/04/09 13:27:59;;;;;;;3.13;0.60;;;12.10;99.90;;;;;;5026335;28;20124;-86
2022/04/09 13:30:28;;;;;;;3.55;0.52;;;11.80;99.90;;;;;;5029083;28;20073;-88
2022/04/09 13:32:58;;;;;;;0.40;0.28;;;11.80;99.90;;;;;;5048254;28;20018;-88
2022/04/09 13:35:24;;;;;;;4.70;0.50;;;11.40;99.90;;;;;;5042324;28;20029;-88
2022/04/09 13:37:50;;;;;;;0.70;0.57;;;10.90;99.90;;;;;;5022420;28;20017;-87
2022/04/09 13:40:16;;;;;;;0.43;0.35;;;10.80;99.90;;;;;;5017265;28;20120;-85
2022/04/09 13:42:45;;;;;;;0.80;0.20;;;11.00;99.90;;;;;;5039127;28;20068;-84
2022/04/09 13:45:12;;;;;;;11.02;0.38;;;10.90;99.90;;;;;;5013244;28;20106;-84
2022/04/09 13:47:42;;;;;;;0.20;0.20;;;10.90;99.90;;;;;;5023515;28;20030;-85
2022/04/09 13:50:09;;;;;;;2.22;0.30;;;11.40;99.90;;;;;;5017871;28;20037;-85
2022/04/09 13:52:35;;;;;;;4.03;0.35;;;12.60;99.90;;;;;;5038252;28;20108;-85
2022/04/09 13:55:01;;;;;;;0.00;0.00;;;12.60;99.90;;;;;;5018711;28;20064;-85
2022/04/09 13:57:26;;;;;;;3.72;0.40;;;12.40;99.90;;;;;;5038854;28;20029;-85
2022/04/09 13:59:52;;;;;;;0.73;0.20;;;11.50;99.90;;;;;;5032708;28;20025;-86
2022/04/09 14:02:19;;;;;;;0.20;0.20;;;10.70;99.90;;;;;;5021704;28;20057;-84
2022/04/09 14:04:45;;;;;;;2.50;0.20;;;10.10;99.90;;;;;;5015486;28;20041;-85
2022/04/09 14:07:11;;;;;;;0.60;0.20;;;9.70;99.90;;;;;;5045493;28;20553;-85
2022/04/09 14:09:37;;;;;;;0.20;0.20;;;9.40;99.90;;;;;;5016357;28;20021;-86
2022/04/09 14:12:03;;;;;;;0.80;0.30;;;9.00;99.90;;;;;;5023415;28;20151;-84
2022/04/09 14:14:29;;;;;;;0.10;0.10;;;8.80;99.90;;;;;;5014241;28;20029;-86
2022/04/09 14:16:55;;;;;;;9.82;0.30;;;8.50;99.90;;;;;;5024055;28;20028;-86
2022/04/09 14:19:21;;;;;;;0.13;0.13;;;8.20;99.90;;;;;;5032475;28;20025;-85
2022/04/09 14:21:47;;;;;;;0.70;0.20;;;7.80;99.90;;;;;;5039428;28;20045;-80
2022/04/09 14:24:13;;;;;;;0.15;0.10;;;7.50;99.90;;;;;;5015799;28;20027;-84
2022/04/09 14:26:39;;;;;;;0.10;0.10;;;7.10;99.90;;;;;;5018411;28;20049;-84
2022/04/09 14:29:05;;;;;;;0.30;0.30;;;7.00;99.90;;;;;;5036835;28;20023;-82
2022/04/09 14:31:32;;;;;;;0.20;0.20;;;6.90;99.90;;;;;;5037081;28;20108;-83
2022/04/09 14:34:02;;;;;;;0.30;0.20;;;6.80;99.90;;;;;;5031572;28;20040;-85
2022/04/09 14:36:28;;;;;;;0.20;0.20;;;6.80;99.90;;;;;;5016484;28;20029;-85
2022/04/09 14:38:57;;;;;;;0.20;0.20;;;6.70;99.90;;;;;;5032000;28;20029;-87
2022/04/09 14:41:23;;;;;;;2.50;0.20;;;6.60;99.90;;;;;;5037795;28;20100;-83
2022/04/09 14:43:57;;;;;;;2.60;0.50;;;6.60;99.90;;;;;;5017034;28;20036;-83
2022/04/09 14:46:23;;;;;;;0.28;0.28;;;6.60;99.90;;;;;;5039098;28;20368;-83
2022/04/09 14:48:48;;;;;;;0.30;0.22;;;6.40;99.90;;;;;;5016502;28;20129;-85
2022/04/09 14:51:15;;;;;;;1.17;0.35;;;6.30;99.90;;;;;;5023494;28;20053;-88
2022/04/09 14:53:41;;;;;;;0.10;0.10;;;6.30;99.90;;;;;;5005141;28;20120;-84
2022/04/09 14:56:10;;;;;;;0.63;0.35;;;6.20;99.90;;;;;;5015365;28;20026;-85
2022/04/09 14:58:40;;;;;;;0.17;0.17;;;6.20;99.90;;;;;;5014408;28;20017;-85
2022/04/09 15:01:07;;;;;;;0.40;0.30;;;6.10;99.90;;;;;;5016896;28;20060;-88
2022/04/09 15:03:37;;;;;;;0.10;0.10;;;6.10;99.90;;;;;;5016093;28;20026;-88
2022/04/09 15:06:04;;;;;;;0.20;0.20;;;6.10;99.90;;;;;;5013490;28;20037;-88
2022/04/09 15:08:30;;;;;;;0.75;0.30;;;6.00;99.90;;;;;;5010810;28;20045;-82
2022/04/09 15:10:57;;;;;;;1.05;0.40;;;6.00;99.90;;;;;;5017014;28;20385;-83
2022/04/09 15:13:23;;;;;;;0.20;0.20;;;5.90;99.90;;;;;;5016861;28;20022;-84
2022/04/09 15:15:51;;;;;;;0.40;0.40;;;5.90;99.90;;;;;;5019069;28;20493;-85
2022/04/09 15:18:17;;;;;;;0.08;0.08;;;5.80;99.90;;;;;;5012041;28;20018;-84
2022/04/09 15:20:43;;;;;;;2.58;0.80;;;5.70;99.90;;;;;;5013640;28;20121;-85
2022/04/09 15:23:09;;;;;;;0.20;0.20;;;5.60;99.90;;;;;;5017007;28;20108;-85
2022/04/09 15:25:35;;;;;;;2.55;0.32;;;5.60;99.90;;;;;;5017855;28;20042;-84
2022/04/09 15:28:01;;;;;;;0.10;0.10;;;5.40;99.90;;;;;;5018565;28;20677;-83
2022/04/09 15:30:28;;;;;;;0.30;0.30;;;5.40;99.90;;;;;;5019405;28;20029;-84
2022/04/09 15:32:54;;;;;;;0.57;0.40;;;5.40;99.90;;;;;;5028487;28;20018;-85
2022/04/09 15:35:20;;;;;;;2.20;0.30;;;5.40;99.90;;;;;;5027315;28;20035;-83
2022/04/09 15:37:46;;;;;;;0.22;0.22;;;5.40;99.90;;;;;;5019439;28;20100;-84
2022/04/09 15:40:12;;;;;;;0.30;0.30;;;5.40;99.90;;;;;;5019303;28;20022;-83
2022/04/09 15:42:50;;;;;;;0.30;0.30;;;5.40;99.90;;;;;;5039331;28;20083;-84
2022/04/09 15:45:16;;;;;;;0.30;0.30;;;5.50;99.90;;;;;;5022394;28;20069;-88
2022/04/09 15:47:42;;;;;;;0.88;0.30;;;5.50;99.90;;;;;;5030862;28;20388;-87
2022/04/09 15:50:10;;;;;;;0.45;0.32;;;5.50;99.90;;;;;;5037703;28;20048;-87
2022/04/09 15:52:41;;;;;;;0.30;0.30;;;5.40;99.90;;;;;;5010187;28;20053;-88
2022/04/09 15:55:09;;;;;;;0.50;0.50;;;5.40;99.90;;;;;;5014762;28;20022;-88
2022/04/09 15:57:44;;;;;;;2.22;0.40;;;5.30;99.90;;;;;;5663929;23;20139;-92
2022/04/09 16:00:10;;;;;;;0.85;0.85;;;5.20;99.90;;;;;;5029857;28;20037;-87
2022/04/09 16:02:38;;;;;;;3.03;1.88;;;5.10;99.90;;;;;;5034436;28;20022;-91
2022/04/09 16:05:14;;;;;;;3.13;1.70;;;5.00;99.90;;;;;;5049405;28;20033;-88
2022/04/09 16:07:40;;;;;;;2.78;1.30;;;5.00;99.90;;;;;;5016047;28;20029;-87
2022/04/09 16:10:08;;;;;;;1.02;0.98;;;5.00;99.90;;;;;;5001758;28;20026;-86
2022/04/09 16:12:38;;;;;;;0.90;0.90;;;5.00;99.90;;;;;;5025131;28;20033;-89
2022/04/09 16:15:10;;;;;;;1.90;1.27;;;5.00;99.90;;;;;;5033530;28;20029;-89
2022/04/09 16:17:37;;;;;;;0.90;0.70;;;5.00;99.90;;;;;;5029927;28;20025;-84
2022/04/09 16:20:04;;;;;;;2.50;1.77;;;5.00;99.90;;;;;;5002689;28;20029;-85
2022/04/09 16:22:31;;;;;;;3.60;2.28;;;5.00;99.90;;;;;;5023883;28;20049;-81
2022/04/09 16:24:57;;;;;;;3.50;2.45;;;5.00;99.90;;;;;;5023878;28;20066;-86
2022/04/09 16:27:27;;;;;;;0.65;0.60;;;5.10;99.90;;;;;;5010249;28;20018;-84
2022/04/09 16:29:54;;;;;;;0.80;0.68;;;5.10;99.90;;;;;;5016868;28;20029;-83
2022/04/09 16:32:21;;;;;;;2.30;1.27;;;5.20;99.90;;;;;;5022679;28;20014;-84
2022/04/09 16:34:50;;;;;;;0.30;0.30;;;5.20;99.90;;;;;;5012051;28;20139;-83
2022/04/09 16:37:16;;;;;;;0.93;0.88;;;5.20;99.90;;;;;;5017917;28;20022;-83
2022/04/09 16:39:42;;;;;;;0.70;0.70;;;5.20;99.90;;;;;;5007399;28;20038;-83
2022/04/09 16:42:08;;;;;;;1.10;0.60;;;5.20;99.90;;;;;;5023110;28;20366;-88
2022/04/09 16:44:34;;;;;;;0.35;0.32;;;5.20;99.90;;;;;;5009425;28;20018;-85
2022/04/09 16:47:00;;;;;;;0.50;0.50;;;5.30;99.90;;;;;;5025563;28;20029;-83
2022/04/09 16:49:26;;;;;;;0.47;0.47;;;5.30;99.90;;;;;;5019510;28;20084;-84
2022/04/09 16:51:55;;;;;;;1.60;0.88;;;5.30;99.90;;;;;;5023137;28;20472;-84
2022/04/09 16:54:20;;;;;;;0.90;0.90;;;5.40;99.90;;;;;;5029200;28;20025;-85
2022/04/09 16:56:46;;;;;;;0.90;0.90;;;5.40;99.90;;;;;;5028969;28;20036;-88
2022/04/09 16:59:14;;;;;;;0.90;0.90;;;5.50;99.90;;;;;;5032777;28;20052;-87
2022/04/09 17:01:41;;;;;;;1.20;1.10;;;5.50;99.90;;;;;;5051798;28;20033;-88
2022/04/09 17:04:10;;;;;;;0.77;0.77;;;5.60;99.90;;;;;;5037940;28;20044;-84
2022/04/09 17:06:37;;;;;;;2.40;0.95;;;5.60;99.90;;;;;;5045204;28;20496;-86
2022/04/09 17:09:06;;;;;;;0.98;0.75;;;5.70;99.90;;;;;;5037018;28;20032;-88
2022/04/09 17:11:32;;;;;;;2.83;0.60;;;5.70;99.90;;;;;;5058848;28;20026;-89
2022/04/09 17:13:58;;;;;;;1.58;0.88;;;5.70;99.90;;;;;;5040320;28;20025;-88
2022/04/09 17:16:24;;;;;;;0.93;0.93;;;5.70;99.90;;;;;;5058616;28;20029;-87
2022/04/09 17:18:50;;;;;;;0.95;0.90;;;5.80;99.90;;;;;;5053510;28;20087;-90
2022/04/09 17:21:17;;;;;;;0.98;0.90;;;5.80;99.90;;;;;;5043036;28;20032;-88